FRA weather

Frankfurt am Main Airport
Frankfurt am Main, Hesse, Germany

Public forecast

Using degrees Celsius for public forecast. Weather courtesy of forecast.io.

METAR (pilot weather report)

Retrieved 2018/07/17 00:20 UTC (28 minutes ago):

EDDF 170020Z VRB01KT CAVOK 16/11 Q1013 NOSIG

TAF (pilot weather forecast)

Forecast is more than 12 hours old.

Retrieved 2018/07/16 00:27 UTC (1 day ago):

TAF TAF EDDF 162300Z 1700/1806 VRB03KT CAVOK TEMPO 1710/1718 30008KT